Time;durP1;ratioP1;P1;durP2;ratioP2;P2;SDS_P1;SDS_P2;PMS_P1;PMS_P2;Temp;Humidity;BMP_temperature;BMP_pressure;BME280_temperature;BME280_humidity;BME280_pressure;Samples;Min_cycle;Max_cycle;Signal;HPM_P1;HPM_P2
2023/05/31 00:02:55;;;;;;;3.97;2.47;;;;;13.80;96804.00;;;;8366007;28;20664;-57
2023/05/31 00:07:06;;;;;;;2.40;2.20;;;;;13.70;96810.00;;;;8365370;28;20227;-57
2023/05/31 00:11:11;;;;;;;6.82;2.05;;;;;13.60;96808.00;;;;8362163;28;20594;-57
2023/05/31 00:15:14;;;;;;;2.50;2.30;;;;;13.40;96807.00;;;;8366653;28;20293;-58
2023/05/31 00:19:17;;;;;;;3.78;2.40;;;;;13.30;96802.00;;;;8364714;28;20242;-57
2023/05/31 00:23:20;;;;;;;8.10;2.20;;;;;13.30;96816.00;;;;8366184;28;20196;-58
2023/05/31 00:27:24;;;;;;;6.55;2.33;;;;;13.30;96807.00;;;;8364465;28;20256;-56
2023/05/31 00:31:27;;;;;;;4.68;2.42;;;;;13.30;96807.00;;;;8365509;28;20226;-58
2023/05/31 00:35:33;;;;;;;6.20;2.10;;;;;13.30;96804.00;;;;8363220;28;20220;-58
2023/05/31 00:39:36;;;;;;;4.20;2.35;;;;;13.30;96803.00;;;;8365230;28;20240;-57
2023/05/31 00:43:41;;;;;;;3.90;2.40;;;;;13.10;96804.00;;;;8363681;28;20202;-57
2023/05/31 00:47:45;;;;;;;5.35;2.30;;;;;13.10;96790.00;;;;8363801;28;20191;-58
2023/05/31 00:51:48;;;;;;;6.88;2.20;;;;;13.10;96798.00;;;;8363890;28;20297;-58
2023/05/31 00:55:53;;;;;;;4.20;2.10;;;;;13.00;96805.00;;;;8364531;28;20254;-58
2023/05/31 00:59:59;;;;;;;3.25;2.15;;;;;13.00;96805.00;;;;8363811;28;20200;-58
2023/05/31 01:04:03;;;;;;;3.03;2.30;;;;;13.00;96797.00;;;;8364559;28;20196;-58
2023/05/31 01:08:09;;;;;;;6.70;2.40;;;;;13.00;96792.00;;;;8364059;28;20508;-58
2023/05/31 01:12:21;;;;;;;5.25;2.40;;;;;12.90;96796.00;;;;8362982;28;20225;-57
2023/05/31 01:16:32;;;;;;;3.13;2.00;;;;;12.80;96796.00;;;;8362722;28;20670;-57
2023/05/31 01:20:37;;;;;;;3.83;2.42;;;;;12.80;96787.00;;;;8364436;28;20204;-57
2023/05/31 01:24:49;;;;;;;4.35;2.25;;;;;12.70;96794.00;;;;8364013;28;20208;-56
2023/05/31 01:29:01;;;;;;;5.70;2.53;;;;;12.60;96788.00;;;;8364191;28;20215;-57
2023/05/31 01:33:07;;;;;;;3.80;2.13;;;;;12.50;96790.00;;;;8363187;28;20198;-56
2023/05/31 01:37:12;;;;;;;10.27;2.53;;;;;12.30;96792.00;;;;8363357;28;20249;-57
2023/05/31 01:41:20;;;;;;;8.02;2.50;;;;;12.10;96789.00;;;;8364134;28;20190;-57
2023/05/31 01:45:28;;;;;;;3.97;2.70;;;;;12.00;96779.00;;;;8363634;28;20229;-57
2023/05/31 01:49:32;;;;;;;11.93;2.45;;;;;11.90;96793.00;;;;8362783;28;20218;-57
2023/05/31 01:53:36;;;;;;;4.00;2.70;;;;;11.90;96799.00;;;;8363395;28;20216;-57
2023/05/31 01:57:46;;;;;;;2.97;2.28;;;;;11.80;96794.00;;;;8362667;28;20226;-57
2023/05/31 02:01:51;;;;;;;2.67;2.35;;;;;11.80;96798.00;;;;8363777;28;20217;-57
2023/05/31 02:05:58;;;;;;;5.72;2.35;;;;;11.70;96801.00;;;;8362860;28;20217;-57
2023/05/31 02:10:02;;;;;;;3.55;2.00;;;;;11.70;96801.00;;;;8363639;28;20228;-57
2023/05/31 02:14:07;;;;;;;4.97;2.10;;;;;11.60;96796.00;;;;8363484;28;20255;-57
2023/05/31 02:18:16;;;;;;;5.20;2.65;;;;;11.50;96800.00;;;;8361192;28;20630;-57
2023/05/31 02:22:20;;;;;;;6.37;2.47;;;;;11.40;96802.00;;;;8361792;28;20258;-57
2023/05/31 02:26:23;;;;;;;3.55;2.60;;;;;11.30;96799.00;;;;8362649;28;20312;-57
2023/05/31 02:30:31;;;;;;;4.90;2.40;;;;;11.20;96793.00;;;;8364953;28;20197;-57
2023/05/31 02:34:36;;;;;;;4.40;2.63;;;;;11.20;96793.00;;;;8368401;28;20187;-57
2023/05/31 02:38:39;;;;;;;2.28;2.13;;;;;11.20;96797.00;;;;8367978;28;20295;-57
2023/05/31 02:42:43;;;;;;;5.60;2.70;;;;;11.20;96802.00;;;;8367970;28;20224;-57
2023/05/31 02:46:47;;;;;;;6.57;2.45;;;;;11.10;96799.00;;;;8368195;28;20280;-57
2023/05/31 02:50:56;;;;;;;4.60;2.63;;;;;11.10;96804.00;;;;8366998;28;20229;-57
2023/05/31 02:55:01;;;;;;;7.27;2.50;;;;;11.00;96805.00;;;;8367822;28;20192;-57
2023/05/31 02:59:05;;;;;;;5.72;2.65;;;;;10.90;96814.00;;;;8368571;28;20568;-57
2023/05/31 03:03:12;;;;;;;3.50;2.33;;;;;10.80;96808.00;;;;8457448;22;20292;-96
2023/05/31 03:07:21;;;;;;;8.05;3.15;;;;;10.60;96810.00;;;;8356134;28;20275;-96
2023/05/31 03:11:28;;;;;;;5.57;2.50;;;;;10.60;96802.00;;;;8355711;28;20227;-96
2023/05/31 03:15:36;;;;;;;5.22;2.30;;;;;10.50;96812.00;;;;8354337;28;20288;-96
2023/05/31 03:19:49;;;;;;;40.22;4.15;;;;;10.50;96811.00;;;;8354017;28;20224;-96
2023/05/31 03:23:57;;;;;;;8.20;2.77;;;;;10.40;96797.00;;;;8352240;28;20224;-96
2023/05/31 03:28:06;;;;;;;5.40;2.67;;;;;10.40;96810.00;;;;8353547;28;20209;-96
2023/05/31 03:32:18;;;;;;;5.35;2.40;;;;;10.40;96813.00;;;;8353557;28;20211;-96
2023/05/31 03:36:30;;;;;;;7.38;2.80;;;;;10.30;96812.00;;;;8352002;28;20224;-96
2023/05/31 03:40:43;;;;;;;6.07;3.13;;;;;10.30;96807.00;;;;8353019;28;20209;-96
2023/05/31 03:45:00;;;;;;;8.52;3.70;;;;;10.40;96808.00;;;;8353027;28;20193;-96
2023/05/31 03:49:06;;;;;;;4.57;2.60;;;;;10.50;96806.00;;;;8355371;28;20201;-96
2023/05/31 03:53:24;;;;;;;5.43;2.70;;;;;10.60;96810.00;;;;8354564;28;20190;-96
2023/05/31 03:57:41;;;;;;;4.78;3.00;;;;;10.80;96805.00;;;;8355246;28;20221;-95
2023/05/31 04:02:06;;;;;;;5.30;2.53;;;;;11.10;96806.00;;;;8358322;28;20232;-96
2023/05/31 04:06:53;;;;;;;6.75;3.22;;;;;11.50;96803.00;;;;8363641;28;20208;-96
2023/05/31 04:16:16;;;;;;;7.18;2.35;;;;;12.50;96814.00;;;;8366539;28;20186;-96
2023/05/31 04:26:17;;;;;;;7.53;2.83;;;;;13.70;96814.00;;;;8364838;28;20222;-96
2023/05/31 04:36:56;;;;;;;4.93;3.13;;;;;14.40;96819.00;;;;8366566;28;20232;-96
2023/05/31 04:56:47;;;;;;;6.93;2.50;;;;;15.40;96839.00;;;;8285486;28;20356;-58
2023/05/31 05:00:56;;;;;;;4.63;2.50;;;;;15.60;96834.00;;;;8280629;28;20291;-58
2023/05/31 05:05:00;;;;;;;4.00;2.55;;;;;15.80;96831.00;;;;8282566;28;20265;-58
2023/05/31 05:09:03;;;;;;;5.15;2.60;;;;;15.80;96844.00;;;;8277933;28;20202;-57
2023/05/31 05:13:10;;;;;;;5.38;2.75;;;;;15.80;96838.00;;;;8279366;28;20579;-58
2023/05/31 05:17:13;;;;;;;6.50;2.90;;;;;16.10;96849.00;;;;8285095;28;20233;-57
2023/05/31 05:21:19;;;;;;;8.93;2.88;;;;;16.20;96854.00;;;;8279261;28;20198;-58
2023/05/31 05:25:22;;;;;;;6.63;2.50;;;;;16.40;96852.00;;;;8281417;28;20206;-58
2023/05/31 05:29:29;;;;;;;7.97;3.03;;;;;16.30;96855.00;;;;8274692;28;20236;-58
2023/05/31 05:33:35;;;;;;;7.93;2.45;;;;;16.00;96858.00;;;;8284229;28;20996;-57
2023/05/31 05:37:38;;;;;;;4.97;2.60;;;;;15.90;96865.00;;;;8283193;28;20230;-57
2023/05/31 05:41:41;;;;;;;5.85;2.75;;;;;15.90;96863.00;;;;8289364;28;20197;-58
2023/05/31 05:45:46;;;;;;;4.97;2.25;;;;;16.00;96866.00;;;;8275934;28;20198;-58
2023/05/31 05:49:49;;;;;;;4.18;2.88;;;;;16.20;96873.00;;;;8287032;28;20670;-58
2023/05/31 05:53:52;;;;;;;6.28;2.42;;;;;16.40;96863.00;;;;8276332;28;20216;-58
2023/05/31 05:57:57;;;;;;;7.13;2.58;;;;;16.70;96870.00;;;;8279023;28;20340;-58
2023/05/31 06:02:04;;;;;;;5.20;2.83;;;;;17.10;96876.00;;;;8275958;28;20229;-58
2023/05/31 06:06:13;;;;;;;6.93;2.67;;;;;17.60;96876.00;;;;8282891;28;20332;-58
2023/05/31 06:10:17;;;;;;;10.80;2.60;;;;;17.90;96874.00;;;;8289027;28;20584;-58
2023/05/31 06:14:20;;;;;;;11.57;3.17;;;;;18.00;96871.00;;;;8268531;28;20209;-58
2023/05/31 06:18:24;;;;;;;5.70;2.78;;;;;18.00;96881.00;;;;8286458;28;20581;-59
2023/05/31 06:22:31;;;;;;;6.97;3.08;;;;;17.90;96879.00;;;;8289145;28;20205;-58
2023/05/31 06:26:43;;;;;;;3.70;2.67;;;;;18.20;96875.00;;;;8299596;28;20364;-58
2023/05/31 06:30:49;;;;;;;5.07;2.65;;;;;18.70;96877.00;;;;8285660;28;20195;-57
2023/05/31 06:34:53;;;;;;;12.70;2.70;;;;;19.00;96876.00;;;;8279545;28;20253;-58
2023/05/31 06:38:58;;;;;;;11.85;3.08;;;;;19.10;96875.00;;;;8284382;28;20646;-58
2023/05/31 06:43:02;;;;;;;13.95;3.22;;;;;19.60;96884.00;;;;8266937;28;20272;-58
2023/05/31 06:47:06;;;;;;;6.15;2.97;;;;;19.80;96882.00;;;;8284228;28;20233;-58
2023/05/31 06:51:10;;;;;;;9.32;2.85;;;;;19.90;96873.00;;;;8292343;28;20214;-58
2023/05/31 06:55:14;;;;;;;4.72;2.72;;;;;19.80;96866.00;;;;8283001;28;20210;-58
2023/05/31 06:59:23;;;;;;;7.88;3.08;;;;;19.70;96873.00;;;;8289894;28;20225;-58
2023/05/31 07:03:26;;;;;;;4.70;2.80;;;;;19.80;96863.00;;;;8277933;28;20218;-57
2023/05/31 07:07:31;;;;;;;11.55;3.35;;;;;20.00;96873.00;;;;8281868;28;20199;-59
2023/05/31 07:11:36;;;;;;;11.82;3.25;;;;;20.30;96863.00;;;;8281135;28;20202;-58
2023/05/31 07:15:39;;;;;;;5.38;2.60;;;;;20.50;96860.00;;;;8285673;28;20298;-58
2023/05/31 07:19:46;;;;;;;5.22;2.20;;;;;20.60;96865.00;;;;8282967;28;20280;-58
2023/05/31 07:23:53;;;;;;;8.43;3.03;;;;;20.80;96855.00;;;;8280863;28;20648;-58
2023/05/31 07:27:59;;;;;;;4.47;2.88;;;;;21.30;96855.00;;;;8283751;28;20823;-58
2023/05/31 07:32:05;;;;;;;4.57;2.78;;;;;21.70;96849.00;;;;8277910;28;20198;-58
2023/05/31 07:36:09;;;;;;;6.18;3.03;;;;;22.00;96862.00;;;;8283195;28;20667;-58
2023/05/31 07:40:15;;;;;;;6.20;2.78;;;;;22.20;96857.00;;;;8285565;28;20706;-58
2023/05/31 07:44:19;;;;;;;12.40;3.10;;;;;22.40;96850.00;;;;8281783;28;20201;-58
2023/05/31 07:48:23;;;;;;;5.88;2.80;;;;;22.90;96847.00;;;;8280739;28;20204;-58
2023/05/31 07:52:29;;;;;;;3.65;2.25;;;;;23.20;96846.00;;;;8282193;28;20226;-58
2023/05/31 07:56:35;;;;;;;6.13;2.75;;;;;24.00;96844.00;;;;8279642;28;20575;-58
2023/05/31 08:00:39;;;;;;;8.57;2.97;;;;;24.00;96851.00;;;;8287522;28;20308;-59
2023/05/31 08:04:45;;;;;;;3.80;2.72;;;;;24.10;96844.00;;;;8279818;28;20575;-59
2023/05/31 08:08:48;;;;;;;12.77;3.13;;;;;24.10;96842.00;;;;8260672;28;20386;-58
2023/05/31 08:12:54;;;;;;;4.03;2.42;;;;;24.30;96841.00;;;;8281260;28;20943;-58
2023/05/31 08:16:58;;;;;;;6.03;2.65;;;;;24.60;96848.00;;;;8276593;28;20683;-58
2023/05/31 08:21:04;;;;;;;5.80;2.50;;;;;24.70;96839.00;;;;8281037;28;20230;-58
2023/05/31 08:25:08;;;;;;;7.18;2.55;;;;;25.30;96839.00;;;;8275933;28;20198;-58
2023/05/31 08:29:14;;;;;;;8.05;3.20;;;;;25.80;96836.00;;;;8259929;28;20251;-58
2023/05/31 08:33:17;;;;;;;4.88;2.55;;;;;26.20;96844.00;;;;8276103;28;20206;-58
2023/05/31 08:37:21;;;;;;;7.43;2.78;;;;;26.70;96841.00;;;;8277379;28;20198;-59
2023/05/31 08:41:27;;;;;;;5.72;2.50;;;;;27.20;96839.00;;;;8276253;28;20226;-59
2023/05/31 08:45:36;;;;;;;4.57;2.88;;;;;26.50;96833.00;;;;8279175;28;20206;-59
2023/05/31 08:49:45;;;;;;;5.75;3.03;;;;;26.20;96832.00;;;;8276975;28;20297;-59
2023/05/31 08:53:49;;;;;;;7.75;2.90;;;;;26.30;96829.00;;;;8286859;28;20297;-59
2023/05/31 08:57:57;;;;;;;5.75;2.78;;;;;27.10;96829.00;;;;8276446;28;20207;-58
2023/05/31 09:02:05;;;;;;;12.07;2.72;;;;;27.40;96834.00;;;;8275278;28;20202;-58
2023/05/31 09:06:09;;;;;;;4.50;2.78;;;;;27.60;96828.00;;;;8279241;28;20725;-58
2023/05/31 09:10:16;;;;;;;5.28;2.30;;;;;27.60;96825.00;;;;8287770;28;20308;-58
2023/05/31 09:14:20;;;;;;;8.27;2.80;;;;;28.20;96817.00;;;;8278321;28;20210;-57
2023/05/31 09:18:29;;;;;;;4.97;2.70;;;;;28.40;96827.00;;;;8281112;28;20280;-58
2023/05/31 09:22:40;;;;;;;11.05;3.13;;;;;28.70;96831.00;;;;8273529;28;20631;-58
2023/05/31 09:26:48;;;;;;;4.82;2.55;;;;;29.40;96819.00;;;;8282407;28;20198;-58
2023/05/31 09:31:05;;;;;;;7.72;2.88;;;;;30.10;96818.00;;;;8276869;28;20198;-58
2023/05/31 09:35:14;;;;;;;3.45;2.22;;;;;30.30;96825.00;;;;8277132;28;20190;-57
2023/05/31 09:39:19;;;;;;;7.97;2.42;;;;;30.20;96824.00;;;;8288078;28;20748;-58
2023/05/31 09:43:22;;;;;;;3.58;2.30;;;;;30.00;96818.00;;;;8283990;28;20190;-58
2023/05/31 09:47:26;;;;;;;7.90;2.65;;;;;29.70;96810.00;;;;8300152;28;20205;-58
2023/05/31 09:51:33;;;;;;;8.15;2.70;;;;;29.10;96808.00;;;;8286392;28;20998;-58
2023/05/31 09:55:42;;;;;;;4.35;2.55;;;;;29.60;96808.00;;;;8283030;28;20255;-58
2023/05/31 09:59:50;;;;;;;7.28;2.65;;;;;30.10;96800.00;;;;8287019;28;20265;-58
2023/05/31 10:03:59;;;;;;;8.25;2.63;;;;;31.10;96803.00;;;;8269924;28;20650;-58
2023/05/31 10:08:05;;;;;;;83.63;5.57;;;;;31.90;96801.00;;;;8277678;28;20194;-58
2023/05/31 10:12:10;;;;;;;21.05;3.40;;;;;32.00;96796.00;;;;8284125;28;20194;-58
2023/05/31 10:16:20;;;;;;;35.55;4.50;;;;;31.10;96797.00;;;;8280620;28;20216;-58
2023/05/31 10:20:26;;;;;;;7.90;2.53;;;;;30.80;96804.00;;;;8282740;28;20222;-59
2023/05/31 10:24:40;;;;;;;6.47;2.60;;;;;30.90;96794.00;;;;8280929;28;20202;-57
2023/05/31 10:28:51;;;;;;;5.93;2.83;;;;;31.30;96790.00;;;;8283764;28;20198;-58
2023/05/31 10:33:01;;;;;;;4.90;2.67;;;;;31.80;96780.00;;;;8287126;28;20289;-59
2023/05/31 10:37:07;;;;;;;7.00;2.80;;;;;32.10;96784.00;;;;8276964;28;20202;-57
2023/05/31 10:41:21;;;;;;;8.70;2.88;;;;;31.20;96790.00;;;;8287914;28;20264;-58
2023/05/31 10:45:37;;;;;;;7.10;2.95;;;;;30.50;96782.00;;;;8283338;28;20567;-58
2023/05/31 10:49:44;;;;;;;6.70;3.40;;;;;30.30;96774.00;;;;8282863;28;20226;-58
2023/05/31 10:53:51;;;;;;;6.22;2.78;;;;;30.10;96775.00;;;;8281830;28;20293;-58
2023/05/31 10:57:58;;;;;;;8.05;2.85;;;;;30.50;96765.00;;;;8284255;28;20198;-58
2023/05/31 11:02:07;;;;;;;9.90;3.20;;;;;30.20;96758.00;;;;8259329;28;20234;-58
2023/05/31 11:06:11;;;;;;;9.55;2.90;;;;;29.30;96770.00;;;;8283123;28;20634;-58
2023/05/31 11:10:32;;;;;;;12.00;3.22;;;;;29.30;96763.00;;;;8272335;28;20230;-58
2023/05/31 11:14:38;;;;;;;3.78;2.83;;;;;29.60;96751.00;;;;8279279;28;20198;-58
2023/05/31 11:18:42;;;;;;;5.88;2.90;;;;;30.00;96758.00;;;;8284739;28;20285;-59
2023/05/31 11:22:47;;;;;;;6.63;3.35;;;;;29.80;96756.00;;;;8284263;28;20344;-58
2023/05/31 11:26:54;;;;;;;7.78;3.15;;;;;30.40;96760.00;;;;8278519;28;20234;-58
2023/05/31 11:31:01;;;;;;;5.05;3.08;;;;;30.90;96750.00;;;;8281172;28;20218;-58
2023/05/31 11:35:11;;;;;;;5.25;3.08;;;;;31.10;96756.00;;;;8285565;28;20305;-59
2023/05/31 11:39:15;;;;;;;4.70;2.90;;;;;31.30;96753.00;;;;8283144;28;20221;-58
2023/05/31 11:43:26;;;;;;;7.35;2.83;;;;;31.70;96751.00;;;;8288749;28;20930;-59
2023/05/31 11:47:36;;;;;;;5.30;2.75;;;;;32.20;96735.00;;;;8281066;28;20202;-57
2023/05/31 11:51:43;;;;;;;4.53;2.80;;;;;33.00;96739.00;;;;8289389;28;20197;-58
2023/05/31 11:55:48;;;;;;;7.38;3.15;;;;;33.00;96735.00;;;;8287328;28;20296;-59
2023/05/31 11:59:54;;;;;;;6.78;2.90;;;;;32.80;96736.00;;;;8266084;28;20264;-58
2023/05/31 12:04:02;;;;;;;5.45;2.80;;;;;32.00;96724.00;;;;8280592;28;20304;-58
2023/05/31 12:08:12;;;;;;;8.27;3.10;;;;;31.40;96718.00;;;;8275427;28;20686;-59
2023/05/31 12:12:15;;;;;;;7.38;3.25;;;;;30.80;96711.00;;;;8285805;28;20228;-58
2023/05/31 12:16:18;;;;;;;4.53;3.10;;;;;30.80;96716.00;;;;8285062;28;20740;-58
2023/05/31 12:20:27;;;;;;;6.22;3.15;;;;;31.20;96720.00;;;;8282051;28;20234;-58
2023/05/31 12:24:30;;;;;;;8.80;3.35;;;;;31.40;96716.00;;;;8279847;28;20195;-58
2023/05/31 12:28:34;;;;;;;5.90;3.00;;;;;32.20;96710.00;;;;8282944;28;20220;-58
2023/05/31 12:32:45;;;;;;;3.13;2.47;;;;;32.40;96706.00;;;;8286262;28;21013;-58
2023/05/31 12:36:51;;;;;;;7.38;2.90;;;;;31.80;96710.00;;;;8280823;28;20243;-59
2023/05/31 12:40:54;;;;;;;8.07;3.38;;;;;31.30;96701.00;;;;8284532;28;20852;-58
2023/05/31 12:45:04;;;;;;;8.77;3.00;;;;;31.00;96695.00;;;;8281029;28;20230;-58
2023/05/31 12:49:20;;;;;;;4.57;3.28;;;;;30.90;96699.00;;;;8281087;28;20202;-58
2023/05/31 12:53:26;;;;;;;8.55;3.50;;;;;30.10;96693.00;;;;8277005;28;20205;-59
2023/05/31 12:57:30;;;;;;;6.07;3.42;;;;;29.70;96687.00;;;;8283704;28;20674;-58
2023/05/31 13:01:41;;;;;;;6.95;3.50;;;;;29.40;96681.00;;;;8297629;28;20272;-58
2023/05/31 13:05:45;;;;;;;7.15;3.53;;;;;29.30;96690.00;;;;8269006;28;20214;-57
2023/05/31 13:09:51;;;;;;;12.07;3.28;;;;;29.30;96685.00;;;;8279817;28;20245;-58
2023/05/31 13:13:55;;;;;;;8.35;3.03;;;;;30.20;96681.00;;;;8274873;28;20238;-58
2023/05/31 13:17:58;;;;;;;8.52;3.13;;;;;31.20;96678.00;;;;8276850;28;20212;-58
2023/05/31 13:22:03;;;;;;;12.63;3.30;;;;;31.70;96677.00;;;;8274757;28;20241;-58
2023/05/31 13:26:10;;;;;;;10.35;3.17;;;;;32.10;96670.00;;;;8279843;28;20429;-57
2023/05/31 13:30:16;;;;;;;7.20;3.15;;;;;32.80;96662.00;;;;8278745;28;20214;-58
2023/05/31 13:34:20;;;;;;;5.45;3.30;;;;;32.90;96663.00;;;;8280505;28;20236;-58
2023/05/31 13:38:23;;;;;;;3.80;3.10;;;;;33.00;96661.00;;;;8287964;28;20761;-58
2023/05/31 13:42:28;;;;;;;6.03;3.22;;;;;32.80;96654.00;;;;8286281;28;20221;-58
2023/05/31 13:46:33;;;;;;;7.97;3.65;;;;;33.00;96658.00;;;;8263917;28;20292;-58
2023/05/31 13:50:36;;;;;;;9.65;3.80;;;;;33.10;96644.00;;;;8282035;28;20357;-58
2023/05/31 13:54:40;;;;;;;7.30;3.20;;;;;32.90;96643.00;;;;8273790;28;20210;-58
2023/05/31 13:58:48;;;;;;;5.45;3.45;;;;;32.30;96644.00;;;;8278413;28;20844;-58
2023/05/31 14:02:54;;;;;;;9.60;3.55;;;;;32.40;96644.00;;;;8279654;28;20312;-58
2023/05/31 14:06:57;;;;;;;4.03;2.88;;;;;32.30;96642.00;;;;8279715;28;20206;-59
2023/05/31 14:11:02;;;;;;;9.57;3.30;;;;;31.80;96640.00;;;;8281669;28;20225;-58
2023/05/31 14:15:08;;;;;;;6.10;3.72;;;;;31.70;96629.00;;;;8285895;28;20603;-58
2023/05/31 14:19:15;;;;;;;6.60;3.65;;;;;32.10;96619.00;;;;8258110;28;20206;-58
2023/05/31 14:23:20;;;;;;;5.93;3.75;;;;;32.50;96621.00;;;;8279249;28;20258;-58
2023/05/31 14:27:28;;;;;;;10.77;3.20;;;;;32.90;96620.00;;;;8282364;28;20206;-57
2023/05/31 14:31:32;;;;;;;7.88;3.42;;;;;33.10;96613.00;;;;8278086;28;20872;-58
2023/05/31 14:35:35;;;;;;;9.48;3.30;;;;;32.80;96616.00;;;;8281722;28;20230;-58
2023/05/31 14:39:39;;;;;;;6.90;3.22;;;;;32.40;96617.00;;;;8285524;28;20997;-58
2023/05/31 14:43:44;;;;;;;8.00;3.58;;;;;31.40;96613.00;;;;8277137;28;20308;-58
2023/05/31 14:47:48;;;;;;;7.68;3.58;;;;;30.70;96606.00;;;;8281055;28;20233;-58
2023/05/31 14:51:57;;;;;;;7.00;3.70;;;;;31.10;96605.00;;;;8282599;28;20652;-58
2023/05/31 14:56:00;;;;;;;5.68;3.13;;;;;31.30;96605.00;;;;8291749;28;20615;-58
2023/05/31 15:00:12;;;;;;;8.88;3.70;;;;;31.10;96601.00;;;;8294042;28;20198;-59
2023/05/31 15:04:16;;;;;;;9.60;3.80;;;;;31.00;96592.00;;;;8284370;28;20242;-58
2023/05/31 15:08:23;;;;;;;6.88;3.58;;;;;31.70;96603.00;;;;8269519;28;20638;-58
2023/05/31 15:12:26;;;;;;;8.88;3.50;;;;;32.60;96596.00;;;;8296065;28;20204;-58
2023/05/31 15:16:33;;;;;;;5.43;3.45;;;;;32.80;96610.00;;;;8284994;28;20215;-58
2023/05/31 15:20:42;;;;;;;6.35;3.28;;;;;32.30;96603.00;;;;8280665;28;20217;-59
2023/05/31 15:24:45;;;;;;;5.80;3.35;;;;;32.20;96600.00;;;;8284589;28;20241;-58
2023/05/31 15:28:52;;;;;;;6.50;3.50;;;;;32.30;96603.00;;;;8284162;28;20747;-58
2023/05/31 15:32:57;;;;;;;9.13;3.55;;;;;32.40;96600.00;;;;8287980;28;20236;-58
2023/05/31 15:37:02;;;;;;;6.35;3.53;;;;;32.20;96595.00;;;;8279141;28;20206;-58
2023/05/31 15:41:05;;;;;;;7.78;3.40;;;;;31.70;96593.00;;;;8289775;28;20221;-58
2023/05/31 15:45:09;;;;;;;6.63;3.72;;;;;31.40;96588.00;;;;8294418;28;20310;-58
2023/05/31 15:49:12;;;;;;;5.47;3.75;;;;;31.40;96592.00;;;;8294001;28;20205;-58
2023/05/31 15:53:17;;;;;;;10.75;3.75;;;;;31.20;96585.00;;;;8295218;28;20564;-58
2023/05/31 15:57:22;;;;;;;6.20;3.40;;;;;31.30;96582.00;;;;8295704;28;20205;-58
2023/05/31 16:01:25;;;;;;;10.43;3.70;;;;;31.50;96572.00;;;;8280324;28;20229;-59
2023/05/31 16:05:29;;;;;;;6.85;3.70;;;;;31.30;96585.00;;;;8280324;28;20218;-57
2023/05/31 16:09:41;;;;;;;6.70;4.05;;;;;31.10;96583.00;;;;8281467;28;20230;-59
2023/05/31 16:13:47;;;;;;;7.25;3.83;;;;;31.00;96578.00;;;;8275119;28;20209;-57
2023/05/31 16:17:51;;;;;;;4.97;3.35;;;;;30.80;96574.00;;;;8283973;28;20198;-58
2023/05/31 16:21:54;;;;;;;5.82;3.90;;;;;30.90;96573.00;;;;8277838;28;20985;-57
2023/05/31 16:25:59;;;;;;;5.00;3.60;;;;;31.20;96571.00;;;;8261885;28;20198;-58
2023/05/31 16:30:04;;;;;;;4.03;3.33;;;;;31.30;96569.00;;;;8258159;28;20238;-58
2023/05/31 16:34:07;;;;;;;6.55;3.50;;;;;31.40;96562.00;;;;8276906;28;20235;-58
2023/05/31 16:38:13;;;;;;;4.93;3.95;;;;;31.50;96556.00;;;;8276810;28;20667;-58
2023/05/31 16:42:18;;;;;;;5.05;3.55;;;;;31.50;96564.00;;;;8281034;28;20226;-58
2023/05/31 16:46:21;;;;;;;7.85;4.03;;;;;31.20;96559.00;;;;8280669;28;20217;-58
2023/05/31 16:50:29;;;;;;;7.00;3.85;;;;;31.30;96557.00;;;;8277282;28;20742;-58
2023/05/31 16:54:35;;;;;;;5.18;3.67;;;;;31.20;96550.00;;;;8277155;28;20292;-58
2023/05/31 16:58:41;;;;;;;5.78;3.53;;;;;31.20;96558.00;;;;8273262;28;20241;-58
2023/05/31 17:02:49;;;;;;;6.55;3.85;;;;;30.70;96555.00;;;;8272145;28;20240;-58
2023/05/31 17:06:53;;;;;;;6.30;3.92;;;;;30.30;96553.00;;;;8273464;28;20309;-58
2023/05/31 17:10:57;;;;;;;7.15;3.70;;;;;30.10;96553.00;;;;8281216;28;20321;-58
2023/05/31 17:15:03;;;;;;;6.93;3.55;;;;;29.70;96551.00;;;;8280563;28;20286;-59
2023/05/31 17:19:11;;;;;;;6.53;3.33;;;;;29.40;96548.00;;;;8277915;28;22081;-58
2023/05/31 17:23:14;;;;;;;13.13;4.20;;;;;28.90;96555.00;;;;8263663;28;20314;-58
2023/05/31 17:27:20;;;;;;;8.80;3.55;;;;;28.70;96546.00;;;;8258728;28;20217;-58
2023/05/31 17:31:25;;;;;;;5.82;3.67;;;;;28.60;96544.00;;;;8276517;28;20210;-58
2023/05/31 17:35:28;;;;;;;6.00;3.75;;;;;28.40;96544.00;;;;8278371;28;20643;-59
2023/05/31 17:39:32;;;;;;;6.28;3.72;;;;;28.40;96545.00;;;;8275648;28;20204;-58
2023/05/31 17:43:36;;;;;;;6.53;3.88;;;;;28.10;96550.00;;;;8278081;28;21001;-58
2023/05/31 17:47:40;;;;;;;7.53;3.47;;;;;27.90;96546.00;;;;8277429;28;20209;-58
2023/05/31 17:51:43;;;;;;;8.63;3.58;;;;;27.50;96541.00;;;;8273110;28;20719;-58
2023/05/31 17:55:47;;;;;;;4.88;3.38;;;;;26.70;96541.00;;;;8278657;28;20206;-58
2023/05/31 17:59:51;;;;;;;4.68;3.65;;;;;26.00;96544.00;;;;8276893;28;20221;-58
2023/05/31 18:03:56;;;;;;;6.18;3.20;;;;;25.40;96543.00;;;;8275208;28;20232;-58
2023/05/31 18:08:03;;;;;;;6.13;3.42;;;;;24.90;96535.00;;;;8280415;28;20295;-59
2023/05/31 18:12:07;;;;;;;8.77;4.05;;;;;24.50;96543.00;;;;8266245;28;20233;-57
2023/05/31 18:16:11;;;;;;;9.25;4.13;;;;;24.20;96546.00;;;;8279584;28;20209;-58
2023/05/31 18:20:17;;;;;;;7.78;3.50;;;;;24.00;96537.00;;;;8282882;28;20194;-57
2023/05/31 18:24:21;;;;;;;9.60;3.90;;;;;23.80;96541.00;;;;8279276;28;20244;-58
2023/05/31 18:28:25;;;;;;;7.63;3.28;;;;;23.50;96539.00;;;;8283446;28;20301;-58
2023/05/31 18:32:33;;;;;;;6.93;3.67;;;;;23.40;96543.00;;;;8278799;28;20202;-58
2023/05/31 18:36:41;;;;;;;7.78;3.30;;;;;23.20;96540.00;;;;8277291;28;20206;-57
2023/05/31 18:40:44;;;;;;;4.78;3.65;;;;;23.00;96544.00;;;;8281969;28;20217;-58
2023/05/31 18:44:52;;;;;;;8.65;3.75;;;;;22.80;96538.00;;;;8279146;28;21031;-58
2023/05/31 18:48:55;;;;;;;5.63;3.28;;;;;22.60;96543.00;;;;8281606;28;20217;-58
2023/05/31 18:53:00;;;;;;;6.15;4.00;;;;;22.40;96541.00;;;;8283551;28;20324;-58
2023/05/31 18:57:03;;;;;;;11.55;3.80;;;;;22.30;96544.00;;;;8278646;28;20213;-58
2023/05/31 19:01:10;;;;;;;7.53;3.75;;;;;22.00;96545.00;;;;8283279;28;20206;-57
2023/05/31 19:05:16;;;;;;;4.13;3.42;;;;;21.80;96545.00;;;;8282010;28;20726;-59
2023/05/31 19:09:20;;;;;;;7.70;3.55;;;;;21.60;96546.00;;;;8273970;28;20214;-58
2023/05/31 19:13:23;;;;;;;8.75;3.25;;;;;21.40;96544.00;;;;8281515;28;20222;-58
2023/05/31 19:17:27;;;;;;;6.55;3.72;;;;;21.20;96548.00;;;;8285446;28;20225;-58
2023/05/31 19:21:32;;;;;;;7.50;3.20;;;;;21.00;96553.00;;;;8284735;28;20691;-58
2023/05/31 19:25:38;;;;;;;3.70;3.35;;;;;20.90;96556.00;;;;8281402;28;20253;-58
2023/05/31 19:29:43;;;;;;;6.10;3.40;;;;;20.80;96561.00;;;;8274324;28;20644;-58
2023/05/31 19:33:46;;;;;;;6.00;3.28;;;;;20.50;96567.00;;;;8280189;28;20195;-58
2023/05/31 19:37:56;;;;;;;10.32;3.47;;;;;20.20;96561.00;;;;8269230;28;20205;-58
2023/05/31 19:42:04;;;;;;;9.85;4.00;;;;;19.90;96560.00;;;;8285277;28;20248;-59
2023/05/31 19:46:17;;;;;;;9.38;3.72;;;;;19.50;96563.00;;;;8283968;28;20293;-58
2023/05/31 19:50:20;;;;;;;5.47;3.28;;;;;19.20;96573.00;;;;8279351;28;20210;-58
2023/05/31 19:54:24;;;;;;;6.13;3.60;;;;;18.90;96578.00;;;;8283360;28;20639;-58
2023/05/31 19:58:29;;;;;;;5.93;3.55;;;;;18.70;96580.00;;;;8284348;28;20297;-57
2023/05/31 20:02:36;;;;;;;4.78;3.63;;;;;18.60;96583.00;;;;8267101;28;20844;-58
2023/05/31 20:06:42;;;;;;;9.35;3.30;;;;;18.40;96576.00;;;;8284504;28;20544;-58
2023/05/31 20:10:45;;;;;;;7.53;3.00;;;;;18.30;96580.00;;;;8284045;28;20221;-57
2023/05/31 20:14:53;;;;;;;6.07;2.80;;;;;18.20;96578.00;;;;8286761;28;20237;-58
2023/05/31 20:18:58;;;;;;;5.50;3.08;;;;;18.10;96572.00;;;;8284822;28;20553;-58
2023/05/31 20:23:04;;;;;;;7.22;3.30;;;;;18.10;96579.00;;;;8264709;28;20292;-58
2023/05/31 20:27:08;;;;;;;7.65;3.22;;;;;18.00;96568.00;;;;8282707;28;20198;-57
2023/05/31 20:31:13;;;;;;;10.10;3.28;;;;;18.00;96572.00;;;;8283910;28;20296;-58
2023/05/31 20:35:17;;;;;;;8.90;3.28;;;;;17.90;96573.00;;;;8285284;28;20252;-57
2023/05/31 20:39:20;;;;;;;9.55;3.20;;;;;17.80;96569.00;;;;8280742;28;20237;-58
2023/05/31 20:43:24;;;;;;;8.85;3.50;;;;;17.70;96559.00;;;;8277708;28;20252;-58
2023/05/31 20:47:30;;;;;;;9.15;3.00;;;;;17.60;96561.00;;;;8278543;28;20206;-57
2023/05/31 20:51:34;;;;;;;4.30;2.88;;;;;17.50;96563.00;;;;8283465;28;20213;-57
2023/05/31 20:55:38;;;;;;;8.98;3.20;;;;;17.40;96562.00;;;;8285038;28;20206;-58
2023/05/31 20:59:49;;;;;;;5.30;2.75;;;;;17.40;96566.00;;;;8295313;28;20201;-57
2023/05/31 21:03:56;;;;;;;6.65;2.85;;;;;17.30;96570.00;;;;8289477;28;20230;-59